CLRO2: Verdigris River, Claremore, OK

Data processed at Sat Mar 10 2018 23:36


All information presented herein is the property of the government of the United States of America and may be revised or deleted at any time without prior notice.
Dissemination of this information without the expressed written consent of the Public Affairs Office, Tulsa District U.S. Army Corps of Engineers is strictly prohibited.
These data are gathered electronically and, as presented, have not undergone any form of quality control. These data are not guaranteed to be valid or correct.
Go to home page.
Go to station list.

Upstream stations:

Downstream station:
Previous Day
Next Day
Current Day
    
SHEF ID:       CLRO2     Verdigris River near Claremore,
STATION TYPE:  

               PRECIP     STAGE  STAGE(2)  RIV-FLOW  BAT-LOAD
                   in        ft        ft       cfs      volt
              Ccp-Rev   Ccp-Rev   Ccp-Rev   Ccp-Rev   Ccp-Rev
(US/Central)
03/08 00:00      0.00      8.10      7.94      5419     12.73
03/08 01:00      0.00      8.09      7.94      5403     12.73
03/08 02:00      0.00      8.10      7.94      5419     12.65
03/08 03:00      0.00      8.10      7.95      5419     12.65
03/08 04:00      0.00      8.10      7.94      5419     12.65
03/08 05:00      0.00      8.10      7.92      5419     12.57
03/08 06:00      0.00      8.09      7.93      5403     12.57
03/08 07:00      0.00      8.09      7.93      5403     12.57
03/08 08:00      0.00      8.09      7.94      5403     13.13
03/08 09:00      0.00      8.08      7.94      5387     13.76
03/08 10:00      0.00      8.07      7.93      5371     13.84
03/08 11:00      0.00      8.06      7.93      5355     13.84
03/08 12:00      0.00      8.06      7.92      5355     13.84
03/08 13:00      0.00      8.06      7.93      5355     13.84
03/08 14:00      0.00      8.01      7.92      5276     13.84
03/08 15:00      0.00      8.06      7.93      5355     13.84
03/08 16:00      0.00      8.02      7.94      5292     13.84
03/08 17:00      0.00      8.05      7.91      5339     13.44
03/08 18:00      0.00      8.06      7.92      5355     13.29
03/08 19:00      0.00      8.07      7.91      5371     13.13
03/08 20:00      0.00      8.07      7.93      5371     12.97
03/08 21:00      0.00      8.07      7.94      5371     12.89
03/08 22:00      0.00      8.07      7.88      5371     12.81
03/08 23:00      0.00      8.07      7.94      5371     12.81